sensor_id;sensor_type;location;lat;lon;timestamp;P1;durP1;ratioP1;P2;durP2;ratioP2
27985;SDS011;15453;53.692;10.168;2022-12-10T00:01:45;54.95;;;28.67;;
27985;SDS011;15453;53.692;10.168;2022-12-10T00:04:11;53.67;;;28.77;;
27985;SDS011;15453;53.692;10.168;2022-12-10T00:06:38;51.88;;;26.67;;
27985;SDS011;15453;53.692;10.168;2022-12-10T00:09:07;50.28;;;27.20;;
27985;SDS011;15453;53.692;10.168;2022-12-10T00:11:36;53.08;;;28.08;;
27985;SDS011;15453;53.692;10.168;2022-12-10T00:14:02;50.70;;;26.73;;
27985;SDS011;15453;53.692;10.168;2022-12-10T00:16:28;49.08;;;28.50;;
27985;SDS011;15453;53.692;10.168;2022-12-10T00:18:54;49.10;;;26.95;;
27985;SDS011;15453;53.692;10.168;2022-12-10T00:21:21;49.90;;;27.20;;
27985;SDS011;15453;53.692;10.168;2022-12-10T00:23:47;49.42;;;26.60;;
27985;SDS011;15453;53.692;10.168;2022-12-10T00:26:20;48.25;;;27.13;;
27985;SDS011;15453;53.692;10.168;2022-12-10T00:28:47;46.60;;;25.88;;
27985;SDS011;15453;53.692;10.168;2022-12-10T00:31:24;51.72;;;27.95;;
27985;SDS011;15453;53.692;10.168;2022-12-10T00:33:52;47.95;;;26.20;;
27985;SDS011;15453;53.692;10.168;2022-12-10T00:36:20;48.42;;;26.35;;
27985;SDS011;15453;53.692;10.168;2022-12-10T00:38:50;47.38;;;25.17;;
27985;SDS011;15453;53.692;10.168;2022-12-10T00:41:16;43.15;;;24.42;;
27985;SDS011;15453;53.692;10.168;2022-12-10T00:43:42;47.70;;;25.50;;
27985;SDS011;15453;53.692;10.168;2022-12-10T00:46:08;46.78;;;26.38;;
27985;SDS011;15453;53.692;10.168;2022-12-10T00:48:34;49.78;;;26.20;;
27985;SDS011;15453;53.692;10.168;2022-12-10T00:51:00;50.08;;;26.60;;
27985;SDS011;15453;53.692;10.168;2022-12-10T00:53:31;43.40;;;23.80;;
27985;SDS011;15453;53.692;10.168;2022-12-10T00:55:58;41.47;;;22.55;;
27985;SDS011;15453;53.692;10.168;2022-12-10T00:58:26;44.40;;;25.40;;
27985;SDS011;15453;53.692;10.168;2022-12-10T01:00:52;48.93;;;27.60;;
27985;SDS011;15453;53.692;10.168;2022-12-10T01:03:17;52.17;;;27.98;;
27985;SDS011;15453;53.692;10.168;2022-12-10T01:05:43;52.78;;;27.80;;
27985;SDS011;15453;53.692;10.168;2022-12-10T01:08:08;49.22;;;26.77;;
27985;SDS011;15453;53.692;10.168;2022-12-10T01:10:33;48.60;;;27.38;;
27985;SDS011;15453;53.692;10.168;2022-12-10T01:12:59;46.90;;;25.48;;
27985;SDS011;15453;53.692;10.168;2022-12-10T01:15:24;46.05;;;25.55;;
27985;SDS011;15453;53.692;10.168;2022-12-10T01:17:49;45.00;;;24.92;;
27985;SDS011;15453;53.692;10.168;2022-12-10T01:20:14;42.95;;;23.70;;
27985;SDS011;15453;53.692;10.168;2022-12-10T01:22:40;42.25;;;23.52;;
27985;SDS011;15453;53.692;10.168;2022-12-10T01:25:05;44.30;;;23.88;;
27985;SDS011;15453;53.692;10.168;2022-12-10T01:27:30;43.05;;;23.65;;
27985;SDS011;15453;53.692;10.168;2022-12-10T01:29:56;43.03;;;22.98;;
27985;SDS011;15453;53.692;10.168;2022-12-10T01:32:21;40.30;;;21.77;;
27985;SDS011;15453;53.692;10.168;2022-12-10T01:34:46;37.75;;;20.48;;
27985;SDS011;15453;53.692;10.168;2022-12-10T01:37:12;32.58;;;18.90;;
27985;SDS011;15453;53.692;10.168;2022-12-10T01:39:37;36.95;;;19.48;;
27985;SDS011;15453;53.692;10.168;2022-12-10T01:42:02;37.17;;;19.95;;
27985;SDS011;15453;53.692;10.168;2022-12-10T01:46:54;38.55;;;20.40;;
27985;SDS011;15453;53.692;10.168;2022-12-10T01:49:25;34.08;;;19.25;;
27985;SDS011;15453;53.692;10.168;2022-12-10T01:51:53;28.13;;;16.20;;
27985;SDS011;15453;53.692;10.168;2022-12-10T01:54:22;30.65;;;15.70;;
27985;SDS011;15453;53.692;10.168;2022-12-10T01:57:13;21.88;;;12.73;;
27985;SDS011;15453;53.692;10.168;2022-12-10T01:59:40;20.70;;;11.80;;
27985;SDS011;15453;53.692;10.168;2022-12-10T02:02:16;21.42;;;11.65;;
27985;SDS011;15453;53.692;10.168;2022-12-10T02:04:50;20.98;;;11.20;;
27985;SDS011;15453;53.692;10.168;2022-12-10T02:15:53;23.83;;;12.30;;
27985;SDS011;15453;53.692;10.168;2022-12-10T02:18:46;21.83;;;12.27;;
27985;SDS011;15453;53.692;10.168;2022-12-10T02:21:18;20.95;;;11.20;;
27985;SDS011;15453;53.692;10.168;2022-12-10T02:23:49;21.27;;;10.85;;
27985;SDS011;15453;53.692;10.168;2022-12-10T02:29:12;17.30;;;10.63;;
27985;SDS011;15453;53.692;10.168;2022-12-10T02:31:41;20.00;;;11.57;;
27985;SDS011;15453;53.692;10.168;2022-12-10T02:34:10;15.95;;;9.43;;
27985;SDS011;15453;53.692;10.168;2022-12-10T02:36:37;16.73;;;9.10;;
27985;SDS011;15453;53.692;10.168;2022-12-10T02:39:06;14.82;;;9.05;;
27985;SDS011;15453;53.692;10.168;2022-12-10T02:41:36;13.98;;;8.02;;
27985;SDS011;15453;53.692;10.168;2022-12-10T02:44:06;14.27;;;8.45;;
27985;SDS011;15453;53.692;10.168;2022-12-10T02:46:33;15.27;;;8.95;;
27985;SDS011;15453;53.692;10.168;2022-12-10T02:49:01;14.63;;;9.38;;
27985;SDS011;15453;53.692;10.168;2022-12-10T02:51:29;15.00;;;8.68;;
27985;SDS011;15453;53.692;10.168;2022-12-10T02:53:58;12.57;;;7.07;;
27985;SDS011;15453;53.692;10.168;2022-12-10T02:56:35;14.77;;;8.23;;
27985;SDS011;15453;53.692;10.168;2022-12-10T03:01:56;14.15;;;7.93;;
27985;SDS011;15453;53.692;10.168;2022-12-10T03:07:34;14.75;;;7.80;;
27985;SDS011;15453;53.692;10.168;2022-12-10T03:13:05;15.90;;;8.85;;
27985;SDS011;15453;53.692;10.168;2022-12-10T03:15:35;16.63;;;9.05;;
27985;SDS011;15453;53.692;10.168;2022-12-10T03:18:04;17.40;;;9.93;;
27985;SDS011;15453;53.692;10.168;2022-12-10T03:20:31;13.50;;;7.95;;
27985;SDS011;15453;53.692;10.168;2022-12-10T03:22:57;16.42;;;9.05;;
27985;SDS011;15453;53.692;10.168;2022-12-10T03:25:24;15.27;;;9.50;;
27985;SDS011;15453;53.692;10.168;2022-12-10T03:27:53;14.60;;;9.05;;
27985;SDS011;15453;53.692;10.168;2022-12-10T03:30:20;16.10;;;9.68;;
27985;SDS011;15453;53.692;10.168;2022-12-10T03:32:45;15.25;;;9.30;;
27985;SDS011;15453;53.692;10.168;2022-12-10T03:35:11;16.20;;;9.60;;
27985;SDS011;15453;53.692;10.168;2022-12-10T03:37:37;17.58;;;9.85;;
27985;SDS011;15453;53.692;10.168;2022-12-10T03:40:03;14.35;;;9.15;;
27985;SDS011;15453;53.692;10.168;2022-12-10T03:42:30;16.10;;;9.60;;
27985;SDS011;15453;53.692;10.168;2022-12-10T03:44:55;15.35;;;9.07;;
27985;SDS011;15453;53.692;10.168;2022-12-10T03:47:21;18.83;;;10.77;;
27985;SDS011;15453;53.692;10.168;2022-12-10T03:49:48;16.90;;;10.05;;
27985;SDS011;15453;53.692;10.168;2022-12-10T03:52:13;18.02;;;10.38;;
27985;SDS011;15453;53.692;10.168;2022-12-10T03:54:39;15.43;;;9.10;;
27985;SDS011;15453;53.692;10.168;2022-12-10T03:57:04;13.18;;;8.05;;
27985;SDS011;15453;53.692;10.168;2022-12-10T03:59:29;12.43;;;7.50;;
27985;SDS011;15453;53.692;10.168;2022-12-10T04:01:55;13.93;;;8.18;;
27985;SDS011;15453;53.692;10.168;2022-12-10T04:04:20;13.40;;;7.40;;
27985;SDS011;15453;53.692;10.168;2022-12-10T04:06:45;14.05;;;7.75;;
27985;SDS011;15453;53.692;10.168;2022-12-10T04:09:11;13.30;;;7.72;;
27985;SDS011;15453;53.692;10.168;2022-12-10T04:11:38;16.77;;;9.18;;
27985;SDS011;15453;53.692;10.168;2022-12-10T04:14:04;13.48;;;8.55;;
27985;SDS011;15453;53.692;10.168;2022-12-10T04:16:48;12.57;;;7.60;;
27985;SDS011;15453;53.692;10.168;2022-12-10T04:19:14;11.68;;;6.63;;
27985;SDS011;15453;53.692;10.168;2022-12-10T04:21:41;12.68;;;7.63;;
27985;SDS011;15453;53.692;10.168;2022-12-10T04:24:27;14.02;;;8.00;;
27985;SDS011;15453;53.692;10.168;2022-12-10T04:27:34;14.93;;;8.40;;
27985;SDS011;15453;53.692;10.168;2022-12-10T04:30:00;13.43;;;7.90;;
27985;SDS011;15453;53.692;10.168;2022-12-10T04:32:26;12.73;;;7.85;;
27985;SDS011;15453;53.692;10.168;2022-12-10T04:34:53;12.77;;;7.78;;
27985;SDS011;15453;53.692;10.168;2022-12-10T04:37:19;14.50;;;8.82;;
27985;SDS011;15453;53.692;10.168;2022-12-10T04:39:45;12.65;;;7.63;;
27985;SDS011;15453;53.692;10.168;2022-12-10T04:42:11;14.05;;;8.18;;
27985;SDS011;15453;53.692;10.168;2022-12-10T04:44:36;12.93;;;8.15;;
27985;SDS011;15453;53.692;10.168;2022-12-10T04:47:03;13.85;;;8.07;;
27985;SDS011;15453;53.692;10.168;2022-12-10T04:49:29;13.27;;;8.15;;
27985;SDS011;15453;53.692;10.168;2022-12-10T04:51:54;13.85;;;8.20;;
27985;SDS011;15453;53.692;10.168;2022-12-10T04:54:20;13.68;;;8.00;;
27985;SDS011;15453;53.692;10.168;2022-12-10T04:56:45;13.40;;;8.07;;
27985;SDS011;15453;53.692;10.168;2022-12-10T04:59:11;12.30;;;7.80;;
27985;SDS011;15453;53.692;10.168;2022-12-10T05:01:37;12.30;;;7.72;;
27985;SDS011;15453;53.692;10.168;2022-12-10T05:04:04;14.02;;;7.82;;
27985;SDS011;15453;53.692;10.168;2022-12-10T05:06:31;12.07;;;6.85;;
27985;SDS011;15453;53.692;10.168;2022-12-10T05:08:57;11.73;;;7.18;;
27985;SDS011;15453;53.692;10.168;2022-12-10T05:11:23;11.52;;;6.82;;
27985;SDS011;15453;53.692;10.168;2022-12-10T05:13:49;11.68;;;7.03;;
27985;SDS011;15453;53.692;10.168;2022-12-10T05:16:17;11.55;;;7.22;;
27985;SDS011;15453;53.692;10.168;2022-12-10T05:18:43;11.25;;;6.97;;
27985;SDS011;15453;53.692;10.168;2022-12-10T05:21:13;13.00;;;7.93;;
27985;SDS011;15453;53.692;10.168;2022-12-10T05:23:41;12.85;;;7.38;;
27985;SDS011;15453;53.692;10.168;2022-12-10T05:26:09;12.70;;;7.72;;
27985;SDS011;15453;53.692;10.168;2022-12-10T05:28:37;12.50;;;7.65;;
27985;SDS011;15453;53.692;10.168;2022-12-10T05:31:03;13.20;;;7.60;;
27985;SDS011;15453;53.692;10.168;2022-12-10T05:33:29;12.30;;;7.85;;
27985;SDS011;15453;53.692;10.168;2022-12-10T05:35:56;13.98;;;8.00;;
27985;SDS011;15453;53.692;10.168;2022-12-10T05:38:22;13.80;;;8.23;;
27985;SDS011;15453;53.692;10.168;2022-12-10T05:40:49;12.45;;;8.23;;
27985;SDS011;15453;53.692;10.168;2022-12-10T05:43:14;14.02;;;8.50;;
27985;SDS011;15453;53.692;10.168;2022-12-10T05:45:40;14.05;;;9.05;;
27985;SDS011;15453;53.692;10.168;2022-12-10T05:48:05;13.48;;;8.20;;
27985;SDS011;15453;53.692;10.168;2022-12-10T05:50:31;13.02;;;7.63;;
27985;SDS011;15453;53.692;10.168;2022-12-10T05:52:57;13.07;;;8.18;;
27985;SDS011;15453;53.692;10.168;2022-12-10T05:55:23;13.43;;;7.55;;
27985;SDS011;15453;53.692;10.168;2022-12-10T05:57:48;12.63;;;7.35;;
27985;SDS011;15453;53.692;10.168;2022-12-10T06:00:14;12.07;;;7.35;;
27985;SDS011;15453;53.692;10.168;2022-12-10T06:02:39;10.57;;;6.35;;
27985;SDS011;15453;53.692;10.168;2022-12-10T06:05:05;9.63;;;6.72;;
27985;SDS011;15453;53.692;10.168;2022-12-10T06:07:30;12.52;;;7.10;;
27985;SDS011;15453;53.692;10.168;2022-12-10T06:09:55;14.00;;;7.93;;
27985;SDS011;15453;53.692;10.168;2022-12-10T06:12:21;12.88;;;7.90;;
27985;SDS011;15453;53.692;10.168;2022-12-10T06:14:46;12.75;;;7.57;;
27985;SDS011;15453;53.692;10.168;2022-12-10T06:17:12;11.20;;;7.68;;
27985;SDS011;15453;53.692;10.168;2022-12-10T06:19:37;11.48;;;7.18;;
27985;SDS011;15453;53.692;10.168;2022-12-10T06:22:02;10.73;;;6.68;;
27985;SDS011;15453;53.692;10.168;2022-12-10T06:24:28;12.70;;;8.13;;
27985;SDS011;15453;53.692;10.168;2022-12-10T06:26:53;13.10;;;7.95;;
27985;SDS011;15453;53.692;10.168;2022-12-10T06:29:19;13.85;;;8.32;;
27985;SDS011;15453;53.692;10.168;2022-12-10T06:31:44;14.15;;;7.88;;
27985;SDS011;15453;53.692;10.168;2022-12-10T06:34:09;13.93;;;7.95;;
27985;SDS011;15453;53.692;10.168;2022-12-10T06:36:34;13.15;;;8.23;;
27985;SDS011;15453;53.692;10.168;2022-12-10T06:39:00;15.23;;;9.27;;
27985;SDS011;15453;53.692;10.168;2022-12-10T06:41:25;15.77;;;9.52;;
27985;SDS011;15453;53.692;10.168;2022-12-10T06:43:50;14.05;;;9.27;;
27985;SDS011;15453;53.692;10.168;2022-12-10T06:46:17;13.82;;;8.13;;
27985;SDS011;15453;53.692;10.168;2022-12-10T06:48:43;12.57;;;8.20;;
27985;SDS011;15453;53.692;10.168;2022-12-10T06:51:09;14.40;;;9.18;;
27985;SDS011;15453;53.692;10.168;2022-12-10T06:53:36;13.48;;;7.82;;
27985;SDS011;15453;53.692;10.168;2022-12-10T06:56:03;12.70;;;7.97;;
27985;SDS011;15453;53.692;10.168;2022-12-10T06:58:30;12.43;;;7.70;;
27985;SDS011;15453;53.692;10.168;2022-12-10T07:01:09;11.20;;;7.82;;
27985;SDS011;15453;53.692;10.168;2022-12-10T07:03:39;13.30;;;8.50;;
27985;SDS011;15453;53.692;10.168;2022-12-10T07:06:05;11.30;;;7.55;;
27985;SDS011;15453;53.692;10.168;2022-12-10T07:08:32;14.55;;;9.07;;
27985;SDS011;15453;53.692;10.168;2022-12-10T07:10:58;16.52;;;9.05;;
27985;SDS011;15453;53.692;10.168;2022-12-10T07:13:23;14.07;;;8.35;;
27985;SDS011;15453;53.692;10.168;2022-12-10T07:15:49;13.00;;;7.63;;
27985;SDS011;15453;53.692;10.168;2022-12-10T07:18:14;10.85;;;5.93;;
27985;SDS011;15453;53.692;10.168;2022-12-10T07:20:39;10.85;;;6.65;;
27985;SDS011;15453;53.692;10.168;2022-12-10T07:23:04;11.13;;;7.15;;
27985;SDS011;15453;53.692;10.168;2022-12-10T07:25:30;10.63;;;6.82;;
27985;SDS011;15453;53.692;10.168;2022-12-10T07:27:55;10.70;;;7.13;;
27985;SDS011;15453;53.692;10.168;2022-12-10T07:30:20;12.00;;;7.28;;
27985;SDS011;15453;53.692;10.168;2022-12-10T07:32:45;11.48;;;7.70;;
27985;SDS011;15453;53.692;10.168;2022-12-10T07:35:11;11.10;;;8.05;;
27985;SDS011;15453;53.692;10.168;2022-12-10T07:37:36;11.90;;;7.40;;
27985;SDS011;15453;53.692;10.168;2022-12-10T07:40:01;11.75;;;7.13;;
27985;SDS011;15453;53.692;10.168;2022-12-10T07:42:27;11.35;;;7.32;;
27985;SDS011;15453;53.692;10.168;2022-12-10T07:44:53;11.93;;;7.32;;
27985;SDS011;15453;53.692;10.168;2022-12-10T07:47:18;11.52;;;7.65;;
27985;SDS011;15453;53.692;10.168;2022-12-10T07:49:44;14.40;;;8.35;;
27985;SDS011;15453;53.692;10.168;2022-12-10T07:52:09;13.63;;;8.80;;
27985;SDS011;15453;53.692;10.168;2022-12-10T07:54:35;15.20;;;10.05;;
27985;SDS011;15453;53.692;10.168;2022-12-10T07:57:00;15.40;;;9.32;;
27985;SDS011;15453;53.692;10.168;2022-12-10T07:59:25;18.30;;;10.75;;
27985;SDS011;15453;53.692;10.168;2022-12-10T08:01:51;18.33;;;11.32;;
27985;SDS011;15453;53.692;10.168;2022-12-10T08:04:16;15.32;;;10.02;;
27985;SDS011;15453;53.692;10.168;2022-12-10T08:06:41;19.73;;;11.48;;
27985;SDS011;15453;53.692;10.168;2022-12-10T08:09:07;18.35;;;10.80;;
27985;SDS011;15453;53.692;10.168;2022-12-10T08:11:32;15.90;;;9.43;;
27985;SDS011;15453;53.692;10.168;2022-12-10T08:13:58;18.77;;;11.23;;
27985;SDS011;15453;53.692;10.168;2022-12-10T08:16:24;14.50;;;9.32;;
27985;SDS011;15453;53.692;10.168;2022-12-10T08:18:51;14.40;;;9.27;;
27985;SDS011;15453;53.692;10.168;2022-12-10T08:21:18;13.20;;;8.48;;
27985;SDS011;15453;53.692;10.168;2022-12-10T08:23:46;16.42;;;10.32;;
27985;SDS011;15453;53.692;10.168;2022-12-10T08:26:13;15.45;;;9.48;;
27985;SDS011;15453;53.692;10.168;2022-12-10T08:28:41;15.10;;;9.60;;
27985;SDS011;15453;53.692;10.168;2022-12-10T08:31:08;14.90;;;9.45;;
27985;SDS011;15453;53.692;10.168;2022-12-10T08:33:35;15.88;;;9.35;;
27985;SDS011;15453;53.692;10.168;2022-12-10T08:36:01;14.70;;;9.18;;
27985;SDS011;15453;53.692;10.168;2022-12-10T08:38:30;13.40;;;7.72;;
27985;SDS011;15453;53.692;10.168;2022-12-10T08:40:56;14.73;;;8.82;;
27985;SDS011;15453;53.692;10.168;2022-12-10T08:43:21;12.45;;;8.40;;
27985;SDS011;15453;53.692;10.168;2022-12-10T08:45:46;12.38;;;7.85;;
27985;SDS011;15453;53.692;10.168;2022-12-10T08:48:11;13.90;;;9.27;;
27985;SDS011;15453;53.692;10.168;2022-12-10T08:50:37;13.95;;;8.90;;
27985;SDS011;15453;53.692;10.168;2022-12-10T08:53:02;13.68;;;8.05;;
27985;SDS011;15453;53.692;10.168;2022-12-10T08:55:28;15.63;;;9.27;;
27985;SDS011;15453;53.692;10.168;2022-12-10T08:57:53;14.90;;;9.40;;
27985;SDS011;15453;53.692;10.168;2022-12-10T09:00:18;15.65;;;9.38;;
27985;SDS011;15453;53.692;10.168;2022-12-10T09:02:44;16.77;;;9.10;;
27985;SDS011;15453;53.692;10.168;2022-12-10T09:05:10;17.08;;;10.38;;
27985;SDS011;15453;53.692;10.168;2022-12-10T09:07:35;16.08;;;9.60;;
27985;SDS011;15453;53.692;10.168;2022-12-10T09:10:01;15.60;;;9.30;;
27985;SDS011;15453;53.692;10.168;2022-12-10T09:12:26;17.95;;;9.57;;
27985;SDS011;15453;53.692;10.168;2022-12-10T09:14:51;18.40;;;10.50;;
27985;SDS011;15453;53.692;10.168;2022-12-10T09:17:17;16.73;;;10.07;;
27985;SDS011;15453;53.692;10.168;2022-12-10T09:19:42;14.68;;;8.85;;
27985;SDS011;15453;53.692;10.168;2022-12-10T09:22:07;19.42;;;10.10;;
27985;SDS011;15453;53.692;10.168;2022-12-10T09:24:33;18.20;;;10.80;;
27985;SDS011;15453;53.692;10.168;2022-12-10T09:26:59;18.13;;;10.38;;
27985;SDS011;15453;53.692;10.168;2022-12-10T09:29:25;17.13;;;10.05;;
27985;SDS011;15453;53.692;10.168;2022-12-10T09:31:51;22.10;;;11.75;;
27985;SDS011;15453;53.692;10.168;2022-12-10T09:34:17;19.30;;;11.18;;
27985;SDS011;15453;53.692;10.168;2022-12-10T09:36:42;20.23;;;11.63;;
27985;SDS011;15453;53.692;10.168;2022-12-10T09:39:08;22.38;;;11.10;;
27985;SDS011;15453;53.692;10.168;2022-12-10T09:46:53;21.40;;;11.85;;
27985;SDS011;15453;53.692;10.168;2022-12-10T09:51:48;22.52;;;12.15;;
27985;SDS011;15453;53.692;10.168;2022-12-10T09:54:19;20.23;;;11.73;;
27985;SDS011;15453;53.692;10.168;2022-12-10T09:56:50;21.30;;;12.30;;
27985;SDS011;15453;53.692;10.168;2022-12-10T09:59:20;19.38;;;11.35;;
27985;SDS011;15453;53.692;10.168;2022-12-10T10:01:53;19.55;;;10.75;;
27985;SDS011;15453;53.692;10.168;2022-12-10T10:04:34;20.73;;;11.95;;
27985;SDS011;15453;53.692;10.168;2022-12-10T10:06:59;18.98;;;10.88;;
27985;SDS011;15453;53.692;10.168;2022-12-10T10:09:25;19.40;;;10.98;;
27985;SDS011;15453;53.692;10.168;2022-12-10T10:11:51;18.65;;;10.60;;
27985;SDS011;15453;53.692;10.168;2022-12-10T10:14:26;22.17;;;11.52;;
27985;SDS011;15453;53.692;10.168;2022-12-10T10:16:54;16.83;;;10.70;;
27985;SDS011;15453;53.692;10.168;2022-12-10T10:19:30;18.55;;;10.93;;
27985;SDS011;15453;53.692;10.168;2022-12-10T10:21:59;16.65;;;9.25;;
27985;SDS011;15453;53.692;10.168;2022-12-10T10:24:26;19.67;;;10.95;;
27985;SDS011;15453;53.692;10.168;2022-12-10T10:26:58;19.48;;;11.15;;
27985;SDS011;15453;53.692;10.168;2022-12-10T10:29:26;20.20;;;11.75;;
27985;SDS011;15453;53.692;10.168;2022-12-10T10:32:11;20.10;;;11.70;;
27985;SDS011;15453;53.692;10.168;2022-12-10T10:34:39;20.77;;;12.43;;
27985;SDS011;15453;53.692;10.168;2022-12-10T10:37:04;18.13;;;10.68;;
27985;SDS011;15453;53.692;10.168;2022-12-10T10:39:30;16.15;;;9.48;;
27985;SDS011;15453;53.692;10.168;2022-12-10T10:41:57;17.23;;;10.07;;
27985;SDS011;15453;53.692;10.168;2022-12-10T10:44:25;17.65;;;10.18;;
27985;SDS011;15453;53.692;10.168;2022-12-10T10:46:53;14.82;;;8.95;;
27985;SDS011;15453;53.692;10.168;2022-12-10T10:54:30;17.20;;;9.80;;
27985;SDS011;15453;53.692;10.168;2022-12-10T10:57:03;15.43;;;9.15;;
27985;SDS011;15453;53.692;10.168;2022-12-10T10:59:35;16.63;;;10.45;;
27985;SDS011;15453;53.692;10.168;2022-12-10T11:05:22;16.77;;;9.70;;
27985;SDS011;15453;53.692;10.168;2022-12-10T11:08:24;17.13;;;10.13;;
27985;SDS011;15453;53.692;10.168;2022-12-10T11:11:17;17.40;;;9.75;;
27985;SDS011;15453;53.692;10.168;2022-12-10T11:13:42;14.97;;;8.97;;
27985;SDS011;15453;53.692;10.168;2022-12-10T11:16:23;17.05;;;9.45;;
27985;SDS011;15453;53.692;10.168;2022-12-10T11:18:57;17.52;;;10.35;;
27985;SDS011;15453;53.692;10.168;2022-12-10T11:21:27;15.75;;;8.85;;
27985;SDS011;15453;53.692;10.168;2022-12-10T11:23:57;14.95;;;9.40;;
27985;SDS011;15453;53.692;10.168;2022-12-10T11:26:36;12.73;;;8.60;;
27985;SDS011;15453;53.692;10.168;2022-12-10T11:32:12;17.98;;;8.98;;
27985;SDS011;15453;53.692;10.168;2022-12-10T11:34:46;12.13;;;8.18;;
27985;SDS011;15453;53.692;10.168;2022-12-10T11:37:31;14.05;;;8.85;;
27985;SDS011;15453;53.692;10.168;2022-12-10T11:40:06;20.63;;;11.73;;
27985;SDS011;15453;53.692;10.168;2022-12-10T11:51:12;17.73;;;10.52;;
27985;SDS011;15453;53.692;10.168;2022-12-10T11:56:33;16.02;;;9.10;;
27985;SDS011;15453;53.692;10.168;2022-12-10T12:04:52;20.30;;;11.93;;
27985;SDS011;15453;53.692;10.168;2022-12-10T12:07:44;18.88;;;11.45;;
27985;SDS011;15453;53.692;10.168;2022-12-10T12:13:09;17.65;;;10.88;;
27985;SDS011;15453;53.692;10.168;2022-12-10T12:18:15;16.07;;;9.50;;
27985;SDS011;15453;53.692;10.168;2022-12-10T12:25:49;20.05;;;10.60;;
27985;SDS011;15453;53.692;10.168;2022-12-10T12:28:34;16.88;;;10.27;;
27985;SDS011;15453;53.692;10.168;2022-12-10T12:31:26;18.13;;;11.05;;
27985;SDS011;15453;53.692;10.168;2022-12-10T12:34:13;16.83;;;9.95;;
27985;SDS011;15453;53.692;10.168;2022-12-10T12:36:43;17.95;;;10.82;;
27985;SDS011;15453;53.692;10.168;2022-12-10T12:39:17;19.67;;;10.43;;
27985;SDS011;15453;53.692;10.168;2022-12-10T12:44:49;19.85;;;11.40;;
27985;SDS011;15453;53.692;10.168;2022-12-10T12:47:29;23.55;;;11.88;;
27985;SDS011;15453;53.692;10.168;2022-12-10T12:50:02;19.63;;;11.63;;
27985;SDS011;15453;53.692;10.168;2022-12-10T12:52:36;18.45;;;10.80;;
27985;SDS011;15453;53.692;10.168;2022-12-10T12:55:09;20.33;;;12.27;;
27985;SDS011;15453;53.692;10.168;2022-12-10T12:57:53;22.92;;;13.30;;
27985;SDS011;15453;53.692;10.168;2022-12-10T13:00:28;20.00;;;11.25;;
27985;SDS011;15453;53.692;10.168;2022-12-10T13:03:21;22.40;;;12.23;;
27985;SDS011;15453;53.692;10.168;2022-12-10T13:06:10;21.80;;;12.40;;
27985;SDS011;15453;53.692;10.168;2022-12-10T13:08:44;23.00;;;11.70;;
27985;SDS011;15453;53.692;10.168;2022-12-10T13:14:03;17.42;;;10.50;;
27985;SDS011;15453;53.692;10.168;2022-12-10T13:27:14;21.27;;;12.18;;
27985;SDS011;15453;53.692;10.168;2022-12-10T13:29:55;19.02;;;10.60;;
27985;SDS011;15453;53.692;10.168;2022-12-10T13:37:32;20.85;;;11.48;;
27985;SDS011;15453;53.692;10.168;2022-12-10T13:42:56;23.50;;;12.77;;
27985;SDS011;15453;53.692;10.168;2022-12-10T13:49:01;18.73;;;10.77;;
27985;SDS011;15453;53.692;10.168;2022-12-10T14:08:39;19.20;;;10.77;;
27985;SDS011;15453;53.692;10.168;2022-12-10T14:11:12;22.75;;;12.88;;
27985;SDS011;15453;53.692;10.168;2022-12-10T14:13:46;19.10;;;10.90;;
27985;SDS011;15453;53.692;10.168;2022-12-10T14:16:14;22.70;;;12.80;;
27985;SDS011;15453;53.692;10.168;2022-12-10T14:18:43;23.52;;;13.38;;
27985;SDS011;15453;53.692;10.168;2022-12-10T14:21:15;23.52;;;13.77;;
27985;SDS011;15453;53.692;10.168;2022-12-10T14:23:48;27.85;;;12.48;;
27985;SDS011;15453;53.692;10.168;2022-12-10T14:31:18;19.88;;;11.68;;
27985;SDS011;15453;53.692;10.168;2022-12-10T14:33:46;22.85;;;12.70;;
27985;SDS011;15453;53.692;10.168;2022-12-10T14:36:15;22.08;;;13.02;;
27985;SDS011;15453;53.692;10.168;2022-12-10T14:38:44;22.70;;;12.05;;
27985;SDS011;15453;53.692;10.168;2022-12-10T14:41:10;24.98;;;13.40;;
27985;SDS011;15453;53.692;10.168;2022-12-10T14:43:40;21.45;;;12.30;;
27985;SDS011;15453;53.692;10.168;2022-12-10T14:46:11;20.55;;;11.60;;
27985;SDS011;15453;53.692;10.168;2022-12-10T14:48:39;23.08;;;12.65;;
27985;SDS011;15453;53.692;10.168;2022-12-10T14:51:13;22.65;;;11.80;;
27985;SDS011;15453;53.692;10.168;2022-12-10T14:53:40;20.13;;;12.23;;
27985;SDS011;15453;53.692;10.168;2022-12-10T14:56:06;26.67;;;15.35;;
27985;SDS011;15453;53.692;10.168;2022-12-10T14:58:37;22.95;;;13.23;;
27985;SDS011;15453;53.692;10.168;2022-12-10T15:01:12;21.45;;;12.75;;
27985;SDS011;15453;53.692;10.168;2022-12-10T15:03:51;19.55;;;11.70;;
27985;SDS011;15453;53.692;10.168;2022-12-10T15:06:18;21.10;;;12.23;;
27985;SDS011;15453;53.692;10.168;2022-12-10T15:08:44;19.67;;;11.48;;
27985;SDS011;15453;53.692;10.168;2022-12-10T15:11:12;22.25;;;12.13;;
27985;SDS011;15453;53.692;10.168;2022-12-10T15:13:43;20.23;;;11.23;;
27985;SDS011;15453;53.692;10.168;2022-12-10T15:16:16;19.65;;;11.05;;
27985;SDS011;15453;53.692;10.168;2022-12-10T15:18:43;19.75;;;10.88;;
27985;SDS011;15453;53.692;10.168;2022-12-10T15:21:11;19.13;;;10.23;;
27985;SDS011;15453;53.692;10.168;2022-12-10T15:23:42;19.13;;;10.65;;
27985;SDS011;15453;53.692;10.168;2022-12-10T15:28:39;22.20;;;10.70;;
27985;SDS011;15453;53.692;10.168;2022-12-10T15:31:13;20.75;;;11.70;;
27985;SDS011;15453;53.692;10.168;2022-12-10T15:33:45;22.50;;;11.95;;
27985;SDS011;15453;53.692;10.168;2022-12-10T15:36:15;20.10;;;11.00;;
27985;SDS011;15453;53.692;10.168;2022-12-10T15:38:44;20.75;;;11.32;;
27985;SDS011;15453;53.692;10.168;2022-12-10T15:44:00;21.50;;;11.05;;
27985;SDS011;15453;53.692;10.168;2022-12-10T15:46:30;19.65;;;10.63;;
27985;SDS011;15453;53.692;10.168;2022-12-10T15:48:57;20.80;;;11.30;;
27985;SDS011;15453;53.692;10.168;2022-12-10T15:51:22;20.95;;;10.90;;
27985;SDS011;15453;53.692;10.168;2022-12-10T15:53:47;20.75;;;10.60;;
27985;SDS011;15453;53.692;10.168;2022-12-10T15:56:12;18.00;;;10.15;;
27985;SDS011;15453;53.692;10.168;2022-12-10T15:58:38;19.55;;;10.88;;
27985;SDS011;15453;53.692;10.168;2022-12-10T16:01:05;18.00;;;10.73;;
27985;SDS011;15453;53.692;10.168;2022-12-10T16:03:33;17.05;;;10.13;;
27985;SDS011;15453;53.692;10.168;2022-12-10T16:05:58;18.58;;;10.88;;
27985;SDS011;15453;53.692;10.168;2022-12-10T16:08:24;19.48;;;11.43;;
27985;SDS011;15453;53.692;10.168;2022-12-10T16:10:56;18.45;;;10.02;;
27985;SDS011;15453;53.692;10.168;2022-12-10T16:13:26;19.70;;;11.57;;
27985;SDS011;15453;53.692;10.168;2022-12-10T16:15:57;18.15;;;10.68;;
27985;SDS011;15453;53.692;10.168;2022-12-10T16:18:24;19.92;;;11.02;;
27985;SDS011;15453;53.692;10.168;2022-12-10T16:20:50;19.15;;;10.75;;
27985;SDS011;15453;53.692;10.168;2022-12-10T16:23:16;20.63;;;11.43;;
27985;SDS011;15453;53.692;10.168;2022-12-10T16:25:41;19.48;;;10.95;;
27985;SDS011;15453;53.692;10.168;2022-12-10T16:28:17;18.67;;;10.50;;
27985;SDS011;15453;53.692;10.168;2022-12-10T16:30:45;18.10;;;9.48;;